createdAt,value
2017-05-23T00:00:19.033Z,21.25
2017-05-23T00:00:45.135Z,21.35
2017-05-23T00:01:11.244Z,21.37
2017-05-23T00:01:37.387Z,21.3
2017-05-23T00:02:03.536Z,21.32
2017-05-23T00:02:29.660Z,21.18
2017-05-23T00:02:55.789Z,21.21
2017-05-23T00:03:21.979Z,21.21
2017-05-23T00:03:48.095Z,21.24
2017-05-23T00:04:14.197Z,21.21
2017-05-23T00:04:40.332Z,21.17
2017-05-23T00:05:06.472Z,21.25
2017-05-23T00:05:32.595Z,21.22
2017-05-23T00:05:58.705Z,21.09
2017-05-23T00:06:24.797Z,21.05
2017-05-23T00:06:50.888Z,21.17
2017-05-23T00:07:17.001Z,21.03
2017-05-23T00:07:43.100Z,21.05
2017-05-23T00:08:09.232Z,21.05
2017-05-23T00:08:35.404Z,20.96
2017-05-23T00:09:01.550Z,20.92
2017-05-23T00:09:27.658Z,20.87
2017-05-23T00:09:53.806Z,20.95
2017-05-23T00:10:19.970Z,20.95
2017-05-23T00:10:46.110Z,20.87
2017-05-23T00:11:12.208Z,20.93
2017-05-23T00:11:38.323Z,20.85
2017-05-23T00:12:04.456Z,20.96
2017-05-23T00:12:30.613Z,20.93
2017-05-23T00:12:56.780Z,20.88
2017-05-23T00:13:22.963Z,20.84
2017-05-23T00:13:49.058Z,20.75
2017-05-23T00:14:15.224Z,20.9
2017-05-23T00:14:41.432Z,20.85
2017-05-23T00:15:07.550Z,20.82
2017-05-23T00:15:33.661Z,20.92
2017-05-23T00:15:59.787Z,20.9
2017-05-23T00:16:25.879Z,20.88
2017-05-23T00:16:52.038Z,20.92
2017-05-23T00:17:18.173Z,20.95
2017-05-23T00:17:44.288Z,20.92
2017-05-23T00:18:10.469Z,20.81
2017-05-23T00:18:36.634Z,20.82
2017-05-23T00:19:02.725Z,20.87
2017-05-23T00:19:28.857Z,20.85
2017-05-23T00:19:54.998Z,20.95
2017-05-23T00:20:21.103Z,20.88
2017-05-23T00:20:47.265Z,20.97
2017-05-23T00:21:13.380Z,20.9
2017-05-23T00:21:39.481Z,20.92
2017-05-23T00:22:05.619Z,20.92
2017-05-23T00:22:31.710Z,21
2017-05-23T00:22:57.831Z,21
2017-05-23T00:23:23.995Z,20.95
2017-05-23T00:23:50.170Z,20.99
2017-05-23T00:24:16.310Z,20.95
2017-05-23T00:24:42.495Z,20.97
2017-05-23T00:25:08.647Z,21.05
2017-05-23T00:25:34.782Z,20.97
2017-05-23T00:26:00.876Z,21.03
2017-05-23T00:26:27.003Z,20.9
2017-05-23T00:26:53.109Z,20.97
2017-05-23T00:27:19.231Z,20.96
2017-05-23T00:27:45.375Z,21.02
2017-05-23T00:28:11.509Z,20.99
2017-05-23T00:28:37.692Z,21.02
2017-05-23T00:29:03.879Z,20.99
2017-05-23T00:29:30.015Z,20.97
2017-05-23T00:29:56.174Z,20.95
2017-05-23T00:30:22.302Z,20.99
2017-05-23T00:30:48.501Z,20.95
2017-05-23T00:31:14.592Z,21.03
2017-05-23T00:31:40.783Z,20.9
2017-05-23T00:32:06.908Z,20.92
2017-05-23T00:32:33.000Z,20.92
2017-05-23T00:32:59.136Z,21
2017-05-23T00:33:25.320Z,20.95
2017-05-23T00:33:51.464Z,21.11
2017-05-23T00:34:17.626Z,20.97
2017-05-23T00:34:43.760Z,21.17
2017-05-23T00:35:09.877Z,21.09
2017-05-23T00:35:35.979Z,21.09
2017-05-23T00:36:02.101Z,21.18
2017-05-23T00:36:28.237Z,21.07
2017-05-23T00:36:54.340Z,21.12
2017-05-23T00:37:20.482Z,20.97
2017-05-23T00:37:46.643Z,21.03
2017-05-23T00:38:12.748Z,21.06
2017-05-23T00:38:38.838Z,21.03
2017-05-23T00:39:04.992Z,20.92
2017-05-23T00:39:31.129Z,20.96
2017-05-23T00:39:57.295Z,20.96
2017-05-23T00:40:23.395Z,21.11
2017-05-23T00:40:49.531Z,20.93
2017-05-23T00:41:15.627Z,20.95
2017-05-23T00:41:41.743Z,20.93
2017-05-23T00:42:07.852Z,20.97
2017-05-23T00:42:33.952Z,20.96
2017-05-23T00:43:00.119Z,20.92
2017-05-23T00:43:26.251Z,20.88
2017-05-23T00:43:52.459Z,20.93
2017-05-23T00:44:18.601Z,20.97
2017-05-23T00:44:44.859Z,20.97
2017-05-23T00:45:11.021Z,20.96
2017-05-23T00:45:37.112Z,20.96
2017-05-23T00:46:03.261Z,20.93
2017-05-23T00:46:29.367Z,20.87
2017-05-23T00:46:55.460Z,20.88
2017-05-23T00:47:21.564Z,20.9
2017-05-23T00:47:47.730Z,20.9
2017-05-23T00:48:13.853Z,20.87
2017-05-23T00:48:39.960Z,20.87
2017-05-23T00:49:06.074Z,20.74
2017-05-23T00:49:32.225Z,20.77
2017-05-23T00:49:58.360Z,20.69
2017-05-23T00:50:24.478Z,20.72
2017-05-23T00:50:50.579Z,20.67
2017-05-23T00:51:16.718Z,20.63
2017-05-23T00:51:42.810Z,20.56
2017-05-23T00:52:08.926Z,20.65
2017-05-23T00:52:35.061Z,20.66
2017-05-23T00:53:01.263Z,20.66
2017-05-23T00:53:27.371Z,20.69
2017-05-23T00:53:53.516Z,20.74
2017-05-23T00:54:19.641Z,20.67
2017-05-23T00:54:45.778Z,20.69
2017-05-23T00:55:11.897Z,20.66
2017-05-23T00:55:38.038Z,20.67
2017-05-23T00:56:04.149Z,20.63
2017-05-23T00:56:30.246Z,20.63
2017-05-23T00:56:56.339Z,20.67
2017-05-23T00:57:22.499Z,20.66
2017-05-23T00:57:48.655Z,20.62
2017-05-23T00:58:14.806Z,20.62
2017-05-23T00:58:40.954Z,20.62
2017-05-23T00:59:07.090Z,20.67
2017-05-23T00:59:33.278Z,20.67
2017-05-23T00:59:59.429Z,20.69
2017-05-23T01:00:25.522Z,20.67
2017-05-23T01:00:51.631Z,20.72
2017-05-23T01:01:17.731Z,20.74
2017-05-23T01:01:43.823Z,20.7
2017-05-23T01:02:09.929Z,20.69
2017-05-23T01:02:36.064Z,20.67
2017-05-23T01:03:02.205Z,20.7
2017-05-23T01:03:28.360Z,20.72
2017-05-23T01:03:54.482Z,20.74
2017-05-23T01:04:20.642Z,20.63
2017-05-23T01:04:46.800Z,20.69
2017-05-23T01:05:12.915Z,20.69
2017-05-23T01:05:39.048Z,20.66
2017-05-23T01:06:05.156Z,20.66
2017-05-23T01:06:31.272Z,20.66
2017-05-23T01:06:57.451Z,20.59
2017-05-23T01:07:23.562Z,20.62
2017-05-23T01:07:49.652Z,20.65
2017-05-23T01:08:15.799Z,20.66
2017-05-23T01:08:41.934Z,20.63
2017-05-23T01:09:08.095Z,20.66
2017-05-23T01:09:34.266Z,20.63
2017-05-23T01:10:00.352Z,20.65
2017-05-23T01:10:26.452Z,20.65
2017-05-23T01:10:52.587Z,20.56
2017-05-23T01:11:18.682Z,20.58
2017-05-23T01:11:44.776Z,20.58
2017-05-23T01:12:10.883Z,20.59
2017-05-23T01:12:36.981Z,20.44
2017-05-23T01:13:03.121Z,20.47
2017-05-23T01:13:29.233Z,20.43
2017-05-23T01:13:55.384Z,20.47
2017-05-23T01:14:21.498Z,20.5
2017-05-23T01:14:47.661Z,20.4
2017-05-23T01:15:13.753Z,20.48
2017-05-23T01:15:39.886Z,20.51
2017-05-23T01:16:05.982Z,20.4
2017-05-23T01:16:32.076Z,20.47
2017-05-23T01:16:58.187Z,20.59
2017-05-23T01:17:24.286Z,20.56
2017-05-23T01:17:50.426Z,20.55
2017-05-23T01:18:16.563Z,20.43
2017-05-23T01:18:42.665Z,20.51
2017-05-23T01:19:08.757Z,20.52
2017-05-23T01:19:34.885Z,20.41
2017-05-23T01:20:00.990Z,20.47
2017-05-23T01:20:27.085Z,20.48
2017-05-23T01:20:53.212Z,20.47
2017-05-23T01:21:19.303Z,20.5
2017-05-23T01:21:45.463Z,20.44
2017-05-23T01:22:11.645Z,20.51
2017-05-23T01:22:37.787Z,20.52
2017-05-23T01:23:03.949Z,20.47
2017-05-23T01:23:30.083Z,20.47
2017-05-23T01:23:56.197Z,20.36
2017-05-23T01:24:22.352Z,20.47
2017-05-23T01:24:48.488Z,20.51
2017-05-23T01:25:14.635Z,20.4
2017-05-23T01:25:40.758Z,20.28
2017-05-23T01:26:06.864Z,20.5
2017-05-23T01:26:32.959Z,20.4
2017-05-23T01:26:59.051Z,20.51
2017-05-23T01:27:25.187Z,20.48
2017-05-23T01:27:51.339Z,20.41
2017-05-23T01:28:17.482Z,20.44
2017-05-23T01:28:43.642Z,20.47
2017-05-23T01:29:09.774Z,20.43
2017-05-23T01:29:35.870Z,20.47
2017-05-23T01:30:02.004Z,20.43
2017-05-23T01:30:28.112Z,20.47
2017-05-23T01:30:54.224Z,20.43
2017-05-23T01:31:20.356Z,20.26
2017-05-23T01:31:46.532Z,20.37
2017-05-23T01:32:12.666Z,20.34
2017-05-23T01:32:38.767Z,20.32
2017-05-23T01:33:04.883Z,20.28
2017-05-23T01:33:31.037Z,20.31
2017-05-23T01:33:57.169Z,20.31
2017-05-23T01:34:23.310Z,20.26
2017-05-23T01:34:49.463Z,20.26
2017-05-23T01:35:15.621Z,20.28
2017-05-23T01:35:41.714Z,20.22
2017-05-23T01:36:07.807Z,20.28
2017-05-23T01:36:33.918Z,20.28
2017-05-23T01:37:00.007Z,20.21
2017-05-23T01:37:26.114Z,20.26
2017-05-23T01:37:52.228Z,20.24
2017-05-23T01:38:18.357Z,20.24
2017-05-23T01:38:44.492Z,20.21
2017-05-23T01:39:10.582Z,20.19
2017-05-23T01:39:36.679Z,20.19
2017-05-23T01:40:02.816Z,20.11
2017-05-23T01:40:28.936Z,20.1
2017-05-23T01:40:55.053Z,20.11
2017-05-23T01:41:21.190Z,20.13
2017-05-23T01:41:47.287Z,20.04
2017-05-23T01:42:13.379Z,20.04
2017-05-23T01:42:39.516Z,20.04
2017-05-23T01:43:05.637Z,20.06
2017-05-23T01:43:31.800Z,20.06
2017-05-23T01:43:57.970Z,20.04
2017-05-23T01:44:24.088Z,20.02
2017-05-23T01:44:50.250Z,20
2017-05-23T01:45:16.472Z,19.99
2017-05-23T01:45:42.564Z,20.02
2017-05-23T01:46:08.700Z,19.96
2017-05-23T01:46:34.804Z,20
2017-05-23T01:47:00.896Z,20.02
2017-05-23T01:47:27.051Z,19.94
2017-05-23T01:47:53.169Z,20.03
2017-05-23T01:48:19.306Z,20.07
2017-05-23T01:48:45.507Z,20.09
2017-05-23T01:49:11.625Z,20.09
2017-05-23T01:49:37.815Z,20.04
2017-05-23T01:50:03.999Z,20.04
2017-05-23T01:50:30.142Z,20.09
2017-05-23T01:50:56.270Z,19.91
2017-05-23T01:51:22.377Z,20
2017-05-23T01:51:48.513Z,19.94
2017-05-23T01:52:14.617Z,19.99
2017-05-23T01:52:40.783Z,19.91
2017-05-23T01:53:06.874Z,19.94
2017-05-23T01:53:32.971Z,19.79
2017-05-23T01:53:59.095Z,19.84
2017-05-23T01:54:25.202Z,19.79
2017-05-23T01:54:51.364Z,19.82
2017-05-23T01:55:17.450Z,19.73
2017-05-23T01:55:43.551Z,19.66
2017-05-23T01:56:09.696Z,19.74
2017-05-23T01:56:35.838Z,19.7
2017-05-23T01:57:01.962Z,19.7
2017-05-23T01:57:28.070Z,19.79
2017-05-23T01:57:54.242Z,19.64
2017-05-23T01:58:20.410Z,19.66
2017-05-23T01:58:46.547Z,19.7
2017-05-23T01:59:12.647Z,19.77
2017-05-23T01:59:38.776Z,19.71
2017-05-23T02:00:04.922Z,19.7
2017-05-23T02:00:31.019Z,19.81
2017-05-23T02:00:57.159Z,19.79
2017-05-23T02:01:23.282Z,19.89
2017-05-23T02:01:49.374Z,19.84
2017-05-23T02:02:15.485Z,19.82
2017-05-23T02:02:41.607Z,19.96
2017-05-23T02:03:07.722Z,19.91
2017-05-23T02:03:33.884Z,19.91
2017-05-23T02:03:59.984Z,19.88
2017-05-23T02:04:26.099Z,19.95
2017-05-23T02:04:52.256Z,19.89
2017-05-23T02:05:18.374Z,19.85
2017-05-23T02:05:44.485Z,19.94
2017-05-23T02:06:10.584Z,19.94
2017-05-23T02:06:36.724Z,19.89
2017-05-23T02:07:02.829Z,19.88
2017-05-23T02:07:29.013Z,19.94
2017-05-23T02:07:55.105Z,19.99
2017-05-23T02:08:21.233Z,19.91
2017-05-23T02:08:47.398Z,19.91
2017-05-23T02:09:13.516Z,19.94
2017-05-23T02:09:39.642Z,19.79
2017-05-23T02:10:05.810Z,19.82
2017-05-23T02:10:31.898Z,19.79
2017-05-23T02:10:58.062Z,19.84
2017-05-23T02:11:24.153Z,19.88
2017-05-23T02:11:50.246Z,19.82
2017-05-23T02:12:16.363Z,19.81
2017-05-23T02:12:42.504Z,19.84
2017-05-23T02:13:08.628Z,19.82
2017-05-23T02:13:34.770Z,19.84
2017-05-23T02:14:00.880Z,19.82
2017-05-23T02:14:26.982Z,19.88
2017-05-23T02:14:53.124Z,19.88
2017-05-23T02:15:19.228Z,19.92
2017-05-23T02:15:45.336Z,19.89
2017-05-23T02:16:11.452Z,19.91
2017-05-23T02:16:37.550Z,19.92
2017-05-23T02:17:03.640Z,19.91
2017-05-23T02:17:29.749Z,19.88
2017-05-23T02:17:55.905Z,19.89
2017-05-23T02:18:22.049Z,19.92
2017-05-23T02:18:48.268Z,19.94
2017-05-23T02:19:14.423Z,19.95
2017-05-23T02:19:40.537Z,19.95
2017-05-23T02:20:06.661Z,19.95
2017-05-23T02:20:32.799Z,19.86
2017-05-23T02:20:58.889Z,19.92
2017-05-23T02:21:25.033Z,19.77
2017-05-23T02:21:51.131Z,19.86
2017-05-23T02:22:17.261Z,19.89
2017-05-23T02:22:43.394Z,19.88
2017-05-23T02:23:09.503Z,19.89
2017-05-23T02:23:35.653Z,19.92
2017-05-23T02:24:01.759Z,19.92
2017-05-23T02:24:27.882Z,19.77
2017-05-23T02:24:54.005Z,19.85
2017-05-23T02:25:20.165Z,19.82
2017-05-23T02:25:46.260Z,19.82
2017-05-23T02:26:12.401Z,19.79
2017-05-23T02:26:38.541Z,19.92
2017-05-23T02:27:04.639Z,19.95
2017-05-23T02:27:30.743Z,19.96
2017-05-23T02:27:56.889Z,19.99
2017-05-23T02:28:23.011Z,19.92
2017-05-23T02:28:49.178Z,19.95
2017-05-23T02:29:15.298Z,19.94
2017-05-23T02:29:41.460Z,19.96
2017-05-23T02:30:07.572Z,19.95
2017-05-23T02:30:33.694Z,19.91
2017-05-23T02:30:59.786Z,19.95
2017-05-23T02:31:25.894Z,19.91
2017-05-23T02:31:52.020Z,19.84
2017-05-23T02:32:18.112Z,19.81
2017-05-23T02:32:44.216Z,19.85
2017-05-23T02:33:10.359Z,19.81
2017-05-23T02:33:36.499Z,19.84
2017-05-23T02:34:02.623Z,19.88
2017-05-23T02:34:28.790Z,19.84
2017-05-23T02:34:54.896Z,19.84
2017-05-23T02:35:20.996Z,19.84
2017-05-23T02:35:47.086Z,19.81
2017-05-23T02:36:13.192Z,19.76
2017-05-23T02:36:39.322Z,19.82
2017-05-23T02:37:05.435Z,19.81
2017-05-23T02:37:31.641Z,19.7
2017-05-23T02:37:57.697Z,19.76
2017-05-23T02:38:23.841Z,19.79
2017-05-23T02:38:49.944Z,19.82
2017-05-23T02:39:16.087Z,19.7
2017-05-23T02:39:42.192Z,19.71
2017-05-23T02:40:08.350Z,19.81
2017-05-23T02:40:34.440Z,19.79
2017-05-23T02:41:00.570Z,19.77
2017-05-23T02:41:26.733Z,19.71
2017-05-23T02:41:52.847Z,19.69
2017-05-23T02:42:18.944Z,19.67
2017-05-23T02:42:45.080Z,19.76
2017-05-23T02:43:11.226Z,19.79
2017-05-23T02:43:37.334Z,19.69
2017-05-23T02:44:03.521Z,19.84
2017-05-23T02:44:29.648Z,19.79
2017-05-23T02:44:55.894Z,19.77
2017-05-23T02:45:21.986Z,19.73
2017-05-23T02:45:48.131Z,19.71
2017-05-23T02:46:14.237Z,19.67
2017-05-23T02:46:40.335Z,19.7
2017-05-23T02:47:06.427Z,19.7
2017-05-23T02:47:32.567Z,19.69
2017-05-23T02:47:58.745Z,19.7
2017-05-23T02:48:24.863Z,19.71
2017-05-23T02:48:51.023Z,19.7
2017-05-23T02:49:17.178Z,19.69
2017-05-23T02:49:43.327Z,19.67
2017-05-23T02:50:09.475Z,19.69
2017-05-23T02:50:35.593Z,19.67
2017-05-23T02:51:01.734Z,19.66
2017-05-23T02:51:27.833Z,19.66
2017-05-23T02:51:53.923Z,19.66
2017-05-23T02:52:20.031Z,19.67
2017-05-23T02:52:46.134Z,19.64
2017-05-23T02:53:12.273Z,19.74
2017-05-23T02:53:38.428Z,19.69
2017-05-23T02:54:04.621Z,19.63
2017-05-23T02:54:30.757Z,19.64
2017-05-23T02:54:56.890Z,19.67
2017-05-23T02:55:23.047Z,19.63
2017-05-23T02:55:49.488Z,19.63
2017-05-23T02:56:15.586Z,19.64
2017-05-23T02:56:41.722Z,19.69
2017-05-23T02:57:07.817Z,19.62
2017-05-23T02:57:33.936Z,19.56
2017-05-23T02:58:00.096Z,19.59
2017-05-23T02:58:26.221Z,19.54
2017-05-23T02:58:52.336Z,19.51
2017-05-23T02:59:18.518Z,19.54
2017-05-23T02:59:44.648Z,19.49
2017-05-23T03:00:10.800Z,19.48
2017-05-23T03:00:36.862Z,19.52
2017-05-23T03:01:02.977Z,19.52
2017-05-23T03:01:29.139Z,19.52
2017-05-23T03:01:55.259Z,19.48
2017-05-23T03:02:21.378Z,19.41
2017-05-23T03:02:47.545Z,19.49
2017-05-23T03:03:13.701Z,19.4
2017-05-23T03:03:39.842Z,19.33
2017-05-23T03:04:05.973Z,19.39
2017-05-23T03:04:32.079Z,19.41
2017-05-23T03:04:58.221Z,19.34
2017-05-23T03:05:24.344Z,19.44
2017-05-23T03:05:50.509Z,19.34
2017-05-23T03:06:16.600Z,19.4
2017-05-23T03:06:42.730Z,19.44
2017-05-23T03:07:08.823Z,19.36
2017-05-23T03:07:34.951Z,19.36
2017-05-23T03:08:01.115Z,19.44
2017-05-23T03:08:27.229Z,19.36
2017-05-23T03:08:53.380Z,19.37
2017-05-23T03:09:19.568Z,19.39
2017-05-23T03:09:45.691Z,19.4
2017-05-23T03:10:11.788Z,19.44
2017-05-23T03:10:37.896Z,19.4
2017-05-23T03:11:03.992Z,19.48
2017-05-23T03:11:30.108Z,19.36
2017-05-23T03:11:56.212Z,19.31
2017-05-23T03:12:22.313Z,19.3
2017-05-23T03:12:48.446Z,19.27
2017-05-23T03:13:14.538Z,19.26
2017-05-23T03:13:40.660Z,19.26
2017-05-23T03:14:06.796Z,19.29
2017-05-23T03:14:32.906Z,19.24
2017-05-23T03:14:58.999Z,19.29
2017-05-23T03:15:25.108Z,19.29
2017-05-23T03:15:51.207Z,19.26
2017-05-23T03:16:17.323Z,19.27
2017-05-23T03:16:43.429Z,19.29
2017-05-23T03:17:09.532Z,19.27
2017-05-23T03:17:35.673Z,19.29
2017-05-23T03:18:01.800Z,19.26
2017-05-23T03:18:27.907Z,19.24
2017-05-23T03:18:54.045Z,19.24
2017-05-23T03:19:20.171Z,19.29
2017-05-23T03:19:46.363Z,19.22
2017-05-23T03:20:12.455Z,19.26
2017-05-23T03:20:38.577Z,19.29
2017-05-23T03:21:04.713Z,19.3
2017-05-23T03:21:30.861Z,19.24
2017-05-23T03:21:56.975Z,19.22
2017-05-23T03:22:23.142Z,19.29
2017-05-23T03:22:49.241Z,19.26
2017-05-23T03:23:15.377Z,19.16
2017-05-23T03:23:41.467Z,19.15
2017-05-23T03:24:07.638Z,19.12
2017-05-23T03:24:33.773Z,19.21
2017-05-23T03:24:59.897Z,19.16
2017-05-23T03:25:26.036Z,19.21
2017-05-23T03:25:52.148Z,19.26
2017-05-23T03:26:18.596Z,19.19
2017-05-23T03:26:44.712Z,19.26
2017-05-23T03:27:10.847Z,19.27
2017-05-23T03:27:37.006Z,19.12
2017-05-23T03:28:03.123Z,19.16
2017-05-23T03:28:29.255Z,19.18
2017-05-23T03:28:55.427Z,19.16
2017-05-23T03:29:21.537Z,19.19
2017-05-23T03:29:47.664Z,19.14
2017-05-23T03:30:13.755Z,19.12
2017-05-23T03:30:39.888Z,19.08
2017-05-23T03:31:06.015Z,19.08
2017-05-23T03:31:32.105Z,19.11
2017-05-23T03:31:58.235Z,19.11
2017-05-23T03:32:24.370Z,19.11
2017-05-23T03:32:50.485Z,19.14
2017-05-23T03:33:16.587Z,19.04
2017-05-23T03:33:42.721Z,19.12
2017-05-23T03:34:08.866Z,19.09
2017-05-23T03:34:35.020Z,19.12
2017-05-23T03:35:01.112Z,19.08
2017-05-23T03:35:27.239Z,19.08
2017-05-23T03:35:53.375Z,19.04
2017-05-23T03:36:19.512Z,19.04
2017-05-23T03:36:45.641Z,19.07
2017-05-23T03:37:11.748Z,19
2017-05-23T03:37:37.864Z,19.07
2017-05-23T03:38:03.985Z,19.02
2017-05-23T03:38:30.122Z,19.07
2017-05-23T03:38:56.241Z,19.02
2017-05-23T03:39:22.408Z,19.02
2017-05-23T03:39:48.569Z,19.02
2017-05-23T03:40:14.665Z,18.99
2017-05-23T03:40:40.757Z,18.99
2017-05-23T03:41:06.892Z,18.93
2017-05-23T03:41:33.020Z,18.99
2017-05-23T03:41:59.113Z,19.02
2017-05-23T03:42:25.240Z,18.99
2017-05-23T03:42:51.377Z,19.04
2017-05-23T03:43:17.519Z,19.02
2017-05-23T03:43:43.650Z,19
2017-05-23T03:44:09.756Z,18.88
2017-05-23T03:44:35.874Z,18.88
2017-05-23T03:45:01.996Z,18.88
2017-05-23T03:45:28.120Z,18.84
2017-05-23T03:45:54.247Z,18.86
2017-05-23T03:46:20.383Z,18.86
2017-05-23T03:46:46.498Z,18.96
2017-05-23T03:47:12.598Z,18.88
2017-05-23T03:47:38.733Z,18.84
2017-05-23T03:48:04.904Z,18.9
2017-05-23T03:48:31.049Z,18.96
2017-05-23T03:48:57.183Z,18.9
2017-05-23T03:49:23.328Z,18.95
2017-05-23T03:49:49.467Z,19.04
2017-05-23T03:50:15.577Z,18.89
2017-05-23T03:50:41.673Z,18.84
2017-05-23T03:51:07.806Z,18.9
2017-05-23T03:51:33.896Z,18.93
2017-05-23T03:52:00.021Z,18.95
2017-05-23T03:52:26.155Z,18.92
2017-05-23T03:52:52.300Z,18.88
2017-05-23T03:53:18.443Z,19
2017-05-23T03:53:44.577Z,18.99
2017-05-23T03:54:10.727Z,19.04
2017-05-23T03:54:36.817Z,18.92
2017-05-23T03:55:02.932Z,19
2017-05-23T03:55:29.032Z,18.9
2017-05-23T03:55:55.151Z,18.93
2017-05-23T03:56:21.285Z,18.93
2017-05-23T03:56:47.780Z,18.86
2017-05-23T03:57:13.888Z,18.78
2017-05-23T03:57:40.015Z,18.83
2017-05-23T03:58:06.159Z,18.78
2017-05-23T03:58:32.315Z,18.74
2017-05-23T03:58:58.437Z,18.78
2017-05-23T03:59:24.551Z,18.71
2017-05-23T03:59:50.683Z,18.78
2017-05-23T04:00:16.818Z,18.74
2017-05-23T04:00:42.908Z,18.73
2017-05-23T04:01:09.041Z,18.74
2017-05-23T04:01:35.175Z,18.74
2017-05-23T04:02:01.292Z,18.8
2017-05-23T04:02:27.396Z,18.75
2017-05-23T04:02:53.515Z,18.7
2017-05-23T04:03:19.645Z,18.7
2017-05-23T04:03:45.781Z,18.7
2017-05-23T04:04:11.898Z,18.78
2017-05-23T04:04:38.054Z,18.7
2017-05-23T04:05:04.190Z,18.75
2017-05-23T04:05:30.280Z,18.77
2017-05-23T04:05:56.401Z,18.74
2017-05-23T04:06:22.539Z,18.71
2017-05-23T04:06:48.659Z,18.78
2017-05-23T04:07:14.778Z,18.81
2017-05-23T04:07:40.936Z,18.78
2017-05-23T04:08:07.061Z,18.73
2017-05-23T04:08:33.255Z,18.84
2017-05-23T04:08:59.403Z,18.83
2017-05-23T04:09:25.488Z,18.8
2017-05-23T04:09:51.626Z,18.77
2017-05-23T04:10:17.723Z,18.78
2017-05-23T04:10:43.816Z,18.84
2017-05-23T04:11:09.927Z,18.74
2017-05-23T04:11:36.052Z,18.8
2017-05-23T04:12:02.170Z,18.78
2017-05-23T04:12:28.326Z,18.81
2017-05-23T04:12:54.482Z,18.8
2017-05-23T04:13:20.611Z,18.8
2017-05-23T04:13:46.760Z,18.73
2017-05-23T04:14:12.852Z,18.81
2017-05-23T04:14:38.988Z,18.74
2017-05-23T04:15:05.138Z,18.75
2017-05-23T04:15:31.229Z,18.81
2017-05-23T04:15:57.334Z,18.68
2017-05-23T04:16:23.435Z,18.71
2017-05-23T04:16:49.527Z,18.7
2017-05-23T04:17:15.686Z,18.66
2017-05-23T04:17:41.849Z,18.71
2017-05-23T04:18:07.991Z,18.73
2017-05-23T04:18:34.169Z,18.81
2017-05-23T04:19:00.263Z,18.75
2017-05-23T04:19:26.400Z,18.74
2017-05-23T04:19:52.530Z,18.83
2017-05-23T04:20:18.647Z,18.78
2017-05-23T04:20:44.751Z,18.81
2017-05-23T04:21:10.856Z,18.75
2017-05-23T04:21:36.943Z,18.75
2017-05-23T04:22:03.041Z,18.81
2017-05-23T04:22:29.148Z,18.75
2017-05-23T04:22:55.265Z,18.84
2017-05-23T04:23:21.411Z,18.77
2017-05-23T04:23:47.543Z,18.7
2017-05-23T04:24:13.664Z,18.75
2017-05-23T04:24:39.807Z,18.78
2017-05-23T04:25:05.997Z,18.77
2017-05-23T04:25:32.095Z,18.74
2017-05-23T04:25:58.187Z,18.71
2017-05-23T04:26:24.295Z,18.8
2017-05-23T04:26:50.396Z,18.81
2017-05-23T04:27:16.511Z,18.78
2017-05-23T04:27:42.615Z,18.84
2017-05-23T04:28:08.750Z,18.84
2017-05-23T04:28:34.864Z,18.75
2017-05-23T04:29:00.992Z,18.71
2017-05-23T04:29:27.116Z,18.8
2017-05-23T04:29:53.263Z,18.81
2017-05-23T04:30:19.419Z,18.83
2017-05-23T04:30:45.511Z,18.84
2017-05-23T04:31:11.615Z,18.9
2017-05-23T04:31:37.723Z,18.88
2017-05-23T04:32:03.814Z,18.83
2017-05-23T04:32:29.939Z,18.84
2017-05-23T04:32:56.104Z,18.84
2017-05-23T04:33:22.251Z,18.86
2017-05-23T04:33:48.421Z,18.92
2017-05-23T04:34:14.557Z,18.88
2017-05-23T04:34:40.701Z,18.83
2017-05-23T04:35:06.846Z,18.84
2017-05-23T04:35:33.004Z,18.84
2017-05-23T04:35:59.131Z,18.92
2017-05-23T04:36:25.270Z,18.88
2017-05-23T04:36:51.357Z,18.83
2017-05-23T04:37:17.479Z,18.86
2017-05-23T04:37:43.614Z,18.93
2017-05-23T04:38:09.738Z,19.07
2017-05-23T04:38:35.855Z,18.88
2017-05-23T04:39:02.017Z,18.89
2017-05-23T04:39:28.116Z,18.9
2017-05-23T04:39:54.232Z,18.88
2017-05-23T04:40:20.338Z,18.9
2017-05-23T04:40:46.438Z,18.74
2017-05-23T04:41:12.538Z,18.81
2017-05-23T04:41:38.682Z,18.83
2017-05-23T04:42:04.772Z,18.83
2017-05-23T04:42:30.883Z,18.9
2017-05-23T04:42:57.008Z,18.89
2017-05-23T04:43:23.149Z,18.93
2017-05-23T04:43:49.309Z,18.93
2017-05-23T04:44:15.410Z,18.92
2017-05-23T04:44:41.577Z,18.83
2017-05-23T04:45:07.733Z,18.81
2017-05-23T04:45:33.843Z,18.8
2017-05-23T04:45:59.931Z,18.74
2017-05-23T04:46:26.081Z,18.83
2017-05-23T04:46:52.197Z,18.83
2017-05-23T04:47:18.387Z,18.83
2017-05-23T04:47:44.514Z,18.86
2017-05-23T04:48:10.605Z,18.92
2017-05-23T04:48:36.764Z,19.07
2017-05-23T04:49:02.928Z,19.09
2017-05-23T04:49:29.068Z,19.14
2017-05-23T04:49:55.193Z,19.29
2017-05-23T04:50:21.300Z,19.39
2017-05-23T04:50:47.394Z,19.41
2017-05-23T04:51:13.517Z,19.56
2017-05-23T04:51:39.653Z,19.7
2017-05-23T04:52:05.775Z,19.69
2017-05-23T04:52:31.906Z,19.67
2017-05-23T04:52:58.017Z,19.7
2017-05-23T04:53:24.149Z,19.81
2017-05-23T04:53:50.338Z,19.94
2017-05-23T04:54:16.429Z,19.95
2017-05-23T04:54:42.574Z,19.96
2017-05-23T04:55:08.738Z,20.02
2017-05-23T04:55:34.833Z,20.04
2017-05-23T04:56:00.923Z,20.03
2017-05-23T04:56:27.032Z,19.89
2017-05-23T04:56:53.131Z,20.04
2017-05-23T04:57:19.224Z,20.06
2017-05-23T04:57:45.357Z,20.07
2017-05-23T04:58:11.479Z,20.07
2017-05-23T04:58:37.616Z,20.03
2017-05-23T04:59:03.792Z,20.07
2017-05-23T04:59:29.908Z,20.07
2017-05-23T04:59:56.019Z,20.02
2017-05-23T05:00:22.147Z,20.07
2017-05-23T05:00:48.262Z,20.22
2017-05-23T05:01:14.370Z,20.21
2017-05-23T05:01:40.501Z,20.06
2017-05-23T05:02:06.595Z,20.14
2017-05-23T05:02:32.726Z,20.11
2017-05-23T05:02:58.834Z,20.11
2017-05-23T05:03:24.956Z,20.09
2017-05-23T05:03:51.108Z,20.1
2017-05-23T05:04:17.223Z,20.1
2017-05-23T05:04:43.333Z,20.07
2017-05-23T05:05:09.461Z,20.11
2017-05-23T05:05:35.553Z,20.11
2017-05-23T05:06:01.658Z,20.11
2017-05-23T05:06:27.822Z,20.1
2017-05-23T05:06:53.912Z,20.09
2017-05-23T05:07:20.038Z,20.06
2017-05-23T05:07:46.145Z,20.04
2017-05-23T05:08:12.288Z,20.09
2017-05-23T05:08:38.412Z,20.09
2017-05-23T05:09:04.576Z,20.09
2017-05-23T05:09:30.721Z,20.1
2017-05-23T05:09:56.812Z,20.11
2017-05-23T05:10:22.950Z,20.19
2017-05-23T05:10:49.046Z,20.22
2017-05-23T05:11:15.139Z,20.14
2017-05-23T05:11:41.299Z,20.11
2017-05-23T05:12:07.429Z,20.14
2017-05-23T05:12:33.523Z,20.1
2017-05-23T05:12:59.656Z,20.18
2017-05-23T05:13:25.762Z,20.21
2017-05-23T05:13:51.901Z,20.11
2017-05-23T05:14:18.003Z,20.06
2017-05-23T05:14:44.124Z,20.1
2017-05-23T05:15:10.254Z,20.26
2017-05-23T05:15:36.355Z,20.11
2017-05-23T05:16:02.449Z,20.07
2017-05-23T05:16:28.556Z,20.19
2017-05-23T05:16:54.663Z,20.18
2017-05-23T05:17:20.778Z,20.13
2017-05-23T05:17:46.956Z,20.06
2017-05-23T05:18:13.120Z,20.16
2017-05-23T05:18:39.294Z,20.13
2017-05-23T05:19:05.415Z,19.95
2017-05-23T05:19:31.609Z,20.06
2017-05-23T05:19:57.728Z,20.04
2017-05-23T05:20:23.858Z,20.09
2017-05-23T05:20:49.949Z,20.09
2017-05-23T05:21:16.078Z,20.11
2017-05-23T05:21:42.214Z,20.1
2017-05-23T05:22:08.332Z,20.1
2017-05-23T05:22:34.429Z,20.11
2017-05-23T05:23:00.537Z,20.07
2017-05-23T05:23:26.662Z,20.06
2017-05-23T05:23:52.776Z,20.14
2017-05-23T05:24:18.917Z,20.16
2017-05-23T05:24:45.070Z,20.18
2017-05-23T05:25:11.190Z,20.13
2017-05-23T05:25:37.347Z,20.21
2017-05-23T05:26:03.380Z,20.18
2017-05-23T05:26:29.516Z,20.16
2017-05-23T05:26:55.610Z,20.18
2017-05-23T05:27:21.729Z,20.21
2017-05-23T05:27:47.841Z,20.19
2017-05-23T05:28:14.000Z,20.19
2017-05-23T05:28:40.094Z,20.1
2017-05-23T05:29:06.223Z,19.92
2017-05-23T05:29:32.354Z,20.06
2017-05-23T05:29:58.471Z,19.96
2017-05-23T05:30:24.573Z,20.04
2017-05-23T05:30:50.708Z,20.13
2017-05-23T05:31:16.802Z,20.07
2017-05-23T05:31:42.908Z,20.24
2017-05-23T05:32:09.028Z,20.26
2017-05-23T05:32:35.151Z,20.31
2017-05-23T05:33:01.306Z,20.31
2017-05-23T05:33:27.402Z,20.24
2017-05-23T05:33:53.587Z,20.16
2017-05-23T05:34:19.734Z,20.11
2017-05-23T05:34:45.842Z,20.11
2017-05-23T05:35:11.967Z,20.14
2017-05-23T05:35:38.073Z,20.09
2017-05-23T05:36:04.195Z,20.1
2017-05-23T05:36:30.292Z,20.14
2017-05-23T05:36:56.395Z,20.07
2017-05-23T05:37:22.522Z,20.18
2017-05-23T05:37:48.686Z,20.07